hwlogo.jpg (8581 bytes)
Home Your Weather Products Services Weather On Your Site Contact
HW Version Logo
Weather Info
Your Weather (Options)
Canadian Weather
International Weather
Enter your " Place, State", US Zip Code or ICAO:  
Forecast Information Radar Information
Fort Smith, Northwest Territories, Canada  Lat: 60.02N, Lon: 111.92W
ICAO Used: CYSM
Current Conditions
Updated: 10:00 PM MST FRI FEB 23 2018
Sun & Moon Information
Overcast
Overcast
Temp: -11°C
Humidity: 78%
Wind Speed: NNW 8 MPH
Barometer: 999 mb
Dewpoint: -14°C
Heat Index: -11°C
Wind Chill: -18°C
Civil Twilight: 7:02 AM MST Moon Phase:
Waxing Gibbous Moon
Sunrise: 7:45 AM MST
Sunset: 5:37 PM MST
Civil Twilight: 6:19 PM MST
Forecast for Fort Smith, NT:
(Forecast based on TAF for )
1139 AM MST FRI FEB 23 2018
  
MORNING AFTERNOON EVENING OVERNIGHT
Overcast Overcast Overcast Light
Snow
ZoneCast:
Dated: 1139 AM MST FRI FEB 23 2018
Morning...Overcast winds variable in direction at 3 mph.

Afternoon...Overcast winds variable in direction at 3 mph.

Evening...Overcast winds variable in direction at 3 mph.

Overnight...Overcast winds variable in direction at 3 mph. Changing to light snow and overcast skies with winds from the northwest at 6 mph.

Original Encoded TAF:
Dated: 1139 AM MST FRI FEB 23 2018
2018/02/23 18:39
TAF CYSM 231738Z 2318/2406 VRB03KT P6SM BKN120 OVC250 
     FM240200 32005KT P6SM -SN BKN080 OVC140 
      RMK NXT FCST BY 240000Z